Time;durP1;ratioP1;P1;durP2;ratioP2;P2;SDS_P1;SDS_P2;PMS_P1;PMS_P2;Temp;Humidity;BMP_temperature;BMP_pressure;BME280_temperature;BME280_humidity;BME280_pressure;Samples;Min_cycle;Max_cycle;Signal;HPM_P1;HPM_P2
2022/03/03 00:02:07;;;;;;;212.00;72.30;;;;;;;-4.97;62.43;99061.19;108377;1271;22567;-75
2022/03/03 00:04:34;;;;;;;214.70;71.60;;;;;;;-5.00;62.60;99058.27;108407;1271;22707;-74
2022/03/03 00:07:01;;;;;;;218.30;75.20;;;;;;;-5.04;62.31;99054.54;108404;1271;22534;-74
2022/03/03 00:09:28;;;;;;;200.20;70.40;;;;;;;-5.08;63.07;99053.49;108365;1271;22543;-74
2022/03/03 00:11:55;;;;;;;205.10;71.90;;;;;;;-5.10;62.38;99050.77;108419;1271;22563;-74
2022/03/03 00:14:22;;;;;;;194.20;68.80;;;;;;;-5.12;62.11;99048.05;108359;1271;22688;-74
2022/03/03 00:16:49;;;;;;;202.70;73.50;;;;;;;-5.10;62.31;99045.51;108392;1271;22694;-76
2022/03/03 00:19:16;;;;;;;192.50;70.40;;;;;;;-5.09;63.00;99048.56;108393;1271;24434;-74
2022/03/03 00:21:43;;;;;;;199.90;68.90;;;;;;;-5.09;63.84;99047.71;108428;1271;22601;-73
2022/03/03 00:24:10;;;;;;;207.50;68.70;;;;;;;-5.11;64.42;99043.98;108670;1271;22531;-73
2022/03/03 00:26:37;;;;;;;207.50;75.60;;;;;;;-5.14;64.21;99041.25;108395;1271;23087;-73
2022/03/03 00:29:04;;;;;;;216.60;72.60;;;;;;;-5.18;63.95;99038.50;108403;1271;22535;-73
2022/03/03 00:31:31;;;;;;;224.60;79.40;;;;;;;-5.23;63.81;99042.23;108465;1271;23433;-74
2022/03/03 00:33:58;;;;;;;233.40;79.10;;;;;;;-5.29;63.72;99046.27;108484;1271;22537;-74
2022/03/03 00:36:27;;;;;;;213.60;72.90;;;;;;;-5.35;64.05;99049.48;108401;1271;24344;-74
2022/03/03 00:38:54;;;;;;;224.00;73.90;;;;;;;-5.40;63.68;99043.85;108401;1271;22534;-74
2022/03/03 00:41:21;;;;;;;211.20;73.60;;;;;;;-5.42;63.45;99038.73;108423;1271;22539;-73
2022/03/03 00:43:48;;;;;;;212.90;74.20;;;;;;;-5.45;63.48;99035.67;108415;1271;22596;-73
2022/03/03 00:46:15;;;;;;;207.90;72.70;;;;;;;-5.47;63.62;99035.85;108439;1271;22992;-75
2022/03/03 00:48:42;;;;;;;207.10;74.80;;;;;;;-5.46;63.68;99034.50;108430;1271;22611;-74
2022/03/03 00:51:09;;;;;;;221.70;77.20;;;;;;;-5.45;64.19;99035.67;108416;1271;22640;-78
2022/03/03 00:53:37;;;;;;;245.10;76.50;;;;;;;-5.46;64.87;99035.52;108409;1271;22601;-74
2022/03/03 00:56:05;;;;;;;262.70;82.30;;;;;;;-5.50;65.31;99029.88;108373;1271;22530;-74
2022/03/03 00:58:32;;;;;;;248.60;77.90;;;;;;;-5.52;65.20;99025.11;108411;1271;22678;-74
2022/03/03 01:01:01;;;;;;;242.60;78.60;;;;;;;-5.56;65.18;99022.39;108616;1271;22527;-74
2022/03/03 01:03:28;;;;;;;249.60;80.20;;;;;;;-5.58;64.72;99021.70;108641;1269;24218;-74
2022/03/03 01:05:55;;;;;;;240.30;76.90;;;;;;;-5.62;64.70;99018.61;108641;1271;22522;-74
2022/03/03 01:08:22;;;;;;;247.00;80.10;;;;;;;-5.65;64.74;99018.77;108621;1271;22541;-74
2022/03/03 01:10:50;;;;;;;271.70;81.70;;;;;;;-5.69;64.60;99016.55;108603;1271;22547;-74
2022/03/03 01:13:17;;;;;;;265.30;81.00;;;;;;;-5.72;64.50;99017.86;108570;1271;22545;-75
2022/03/03 01:15:44;;;;;;;260.30;84.10;;;;;;;-5.75;63.86;99016.34;108663;1271;22544;-74
2022/03/03 01:18:11;;;;;;;203.20;70.60;;;;;;;-5.79;63.84;99011.73;108607;1271;22607;-74
2022/03/03 01:20:39;;;;;;;199.70;71.00;;;;;;;-5.78;63.93;99010.72;108599;1271;22688;-74
2022/03/03 01:23:06;;;;;;;194.10;71.40;;;;;;;-5.78;64.44;99007.33;108593;1271;22885;-74
2022/03/03 01:25:33;;;;;;;184.60;62.80;;;;;;;-5.77;65.28;99009.04;108628;1271;22541;-74
2022/03/03 01:28:00;;;;;;;190.80;68.30;;;;;;;-5.79;65.75;99009.69;108607;1271;25264;-74
2022/03/03 01:30:27;;;;;;;190.60;67.90;;;;;;;-5.83;65.55;99009.17;108639;1271;22527;-77
2022/03/03 01:32:54;;;;;;;200.90;69.60;;;;;;;-5.87;65.55;99005.08;108613;1270;22527;-76
2022/03/03 01:35:21;;;;;;;182.40;63.80;;;;;;;-5.90;65.42;99006.43;108617;1271;22525;-77
2022/03/03 01:37:48;;;;;;;185.50;67.30;;;;;;;-5.94;65.22;99006.75;108572;1271;24418;-75
2022/03/03 01:40:15;;;;;;;189.70;68.60;;;;;;;-5.98;65.47;99001.80;108608;1271;22637;-75
2022/03/03 01:42:42;;;;;;;200.80;71.40;;;;;;;-6.01;65.10;99001.45;108564;1271;22531;-75
2022/03/03 01:45:09;;;;;;;173.30;63.50;;;;;;;-6.04;64.99;99000.58;108200;1271;560952;-75
2022/03/03 01:47:36;;;;;;;180.80;60.80;;;;;;;-6.07;64.86;99001.06;108599;1271;22549;-75
2022/03/03 01:50:05;;;;;;;177.90;61.90;;;;;;;-6.11;64.48;99001.40;108624;1271;22522;-75
2022/03/03 01:52:32;;;;;;;181.30;64.70;;;;;;;-6.15;64.84;99001.02;108658;1271;22544;-76
2022/03/03 01:54:59;;;;;;;173.50;66.20;;;;;;;-6.14;64.60;99003.05;108642;1270;25297;-76
2022/03/03 01:57:27;;;;;;;181.70;71.30;;;;;;;-6.14;64.94;99002.89;108632;1271;22525;-78
2022/03/03 01:59:54;;;;;;;180.50;62.30;;;;;;;-6.13;65.60;98999.16;108635;1271;22542;-76
2022/03/03 02:02:23;;;;;;;190.20;68.60;;;;;;;-6.16;66.19;98998.62;108628;1271;22561;-77
2022/03/03 02:04:50;;;;;;;189.10;67.20;;;;;;;-6.20;65.98;98993.70;108631;1270;22536;-76
2022/03/03 02:07:17;;;;;;;187.90;66.40;;;;;;;-6.22;65.96;98986.55;108643;1271;22551;-76
2022/03/03 02:09:45;;;;;;;190.60;66.20;;;;;;;-6.25;65.49;98983.80;108599;1271;25310;-79
2022/03/03 02:12:12;;;;;;;188.70;64.20;;;;;;;-6.27;65.37;98981.27;108598;1271;22538;-85
2022/03/03 02:14:47;;;;;;;184.00;65.10;;;;;;;-6.30;65.56;98982.95;108610;1268;22550;-76
2022/03/03 02:17:16;;;;;;;177.70;62.10;;;;;;;-6.33;65.58;98983.41;108607;1271;24265;-77
2022/03/03 02:19:44;;;;;;;178.10;64.50;;;;;;;-6.39;65.05;98985.58;108615;1271;22610;-77
2022/03/03 02:22:11;;;;;;;188.80;67.50;;;;;;;-6.45;65.05;98984.85;108605;1271;24215;-76
2022/03/03 02:24:39;;;;;;;169.20;63.90;;;;;;;-6.50;64.84;98981.24;108598;1271;22709;-76
2022/03/03 02:27:07;;;;;;;188.20;76.20;;;;;;;-6.51;65.52;98977.51;108609;1271;23622;-76
2022/03/03 02:29:35;;;;;;;197.70;75.70;;;;;;;-6.49;65.82;98970.75;108598;1271;23048;-76
2022/03/03 02:32:05;;;;;;;216.00;70.90;;;;;;;-6.49;66.58;98966.86;108570;1271;25496;-75
2022/03/03 02:34:32;;;;;;;201.50;72.20;;;;;;;-6.51;66.92;98963.45;108617;1271;22619;-75
2022/03/03 02:36:59;;;;;;;191.20;67.20;;;;;;;-6.53;66.92;98960.04;108617;1271;22531;-76
2022/03/03 02:39:26;;;;;;;198.00;70.90;;;;;;;-6.54;66.35;98959.72;108596;1271;22535;-74
2022/03/03 02:41:53;;;;;;;196.10;70.40;;;;;;;-6.55;66.58;98952.92;108595;1271;25240;-74
2022/03/03 02:44:20;;;;;;;177.80;64.30;;;;;;;-6.57;66.59;98952.74;108609;1271;22712;-76
2022/03/03 02:46:47;;;;;;;198.10;67.70;;;;;;;-6.58;66.42;98948.66;108640;1271;25907;-75
2022/03/03 02:49:15;;;;;;;200.70;69.50;;;;;;;-6.61;66.01;98946.25;108566;1271;22709;-74
2022/03/03 02:51:42;;;;;;;198.10;73.00;;;;;;;-6.65;65.86;98940.81;108653;1271;22564;-74
2022/03/03 02:54:08;;;;;;;210.90;72.60;;;;;;;-6.70;65.58;98944.83;108590;1271;22624;-77
2022/03/03 02:57:53;;;;;;;210.70;78.50;;;;;;;-6.73;66.23;98948.20;108620;1269;22542;-78
2022/03/03 02:59:23;;;;;;;243.90;91.20;;;;;;;-6.73;66.11;98949.23;108572;1271;24326;-77
2022/03/03 03:01:50;;;;;;;224.00;85.00;;;;;;;-6.72;66.42;98947.02;108681;1271;25293;-76
2022/03/03 03:04:17;;;;;;;234.10;80.80;;;;;;;-6.71;67.23;98941.94;108631;1271;22526;-75
2022/03/03 03:06:44;;;;;;;241.90;83.70;;;;;;;-6.73;67.36;98938.55;108606;1270;22538;-72
2022/03/03 03:09:11;;;;;;;233.30;82.00;;;;;;;-6.74;67.55;98938.20;108616;1271;24829;-73
2022/03/03 03:11:38;;;;;;;218.70;78.90;;;;;;;-6.75;67.34;98934.80;108603;1271;22684;-73
2022/03/03 03:14:05;;;;;;;199.30;73.30;;;;;;;-6.78;67.15;98935.77;108668;1271;22695;-74
2022/03/03 03:16:32;;;;;;;213.40;76.90;;;;;;;-6.80;67.31;98936.28;108642;1271;22620;-74
2022/03/03 03:18:59;;;;;;;217.20;76.60;;;;;;;-6.82;66.76;98936.95;108658;1271;25253;-75
2022/03/03 03:21:26;;;;;;;204.40;71.90;;;;;;;-6.85;66.57;98939.45;108669;1271;22541;-75
2022/03/03 03:23:53;;;;;;;201.60;74.80;;;;;;;-6.87;66.82;98944.34;108724;1271;22523;-76
2022/03/03 03:26:20;;;;;;;184.60;66.60;;;;;;;-6.92;66.67;98947.36;108703;1271;22616;-76
2022/03/03 03:28:47;;;;;;;194.40;70.20;;;;;;;-6.94;66.37;98939.37;108667;1271;22614;-76
2022/03/03 03:31:14;;;;;;;204.30;75.10;;;;;;;-6.94;66.40;98938.69;108642;1269;22524;-74
2022/03/03 03:33:41;;;;;;;205.90;80.30;;;;;;;-6.91;66.63;98932.47;108707;1271;22534;-75
2022/03/03 03:36:08;;;;;;;200.50;77.20;;;;;;;-6.88;67.37;98927.56;108591;1271;24072;-75
2022/03/03 03:38:35;;;;;;;188.90;75.30;;;;;;;-6.85;68.36;98922.52;108588;1271;22604;-75
2022/03/03 03:41:02;;;;;;;186.30;71.40;;;;;;;-6.83;68.73;98919.50;108634;1271;25228;-75
2022/03/03 03:43:29;;;;;;;202.20;74.00;;;;;;;-6.81;69.09;98923.23;108623;1271;22527;-75
2022/03/03 03:45:56;;;;;;;198.90;75.20;;;;;;;-6.79;69.76;98923.23;108600;1271;22607;-83
2022/03/03 03:48:23;;;;;;;218.60;78.10;;;;;;;-6.79;69.85;98924.76;108583;1271;25640;-76
2022/03/03 03:50:50;;;;;;;203.90;76.70;;;;;;;-6.80;70.17;98922.39;108612;1270;24369;-75
2022/03/03 03:53:17;;;;;;;202.00;74.50;;;;;;;-6.82;69.84;98919.50;108607;1271;22522;-75
2022/03/03 03:55:44;;;;;;;221.90;78.20;;;;;;;-6.83;69.28;98914.23;108646;1271;22539;-75
2022/03/03 03:58:11;;;;;;;220.90;80.90;;;;;;;-6.86;68.96;98914.04;108602;1271;22527;-77
2022/03/03 04:00:39;;;;;;;229.50;80.00;;;;;;;-6.87;69.04;98909.77;108641;1271;22518;-76
2022/03/03 04:03:06;;;;;;;237.00;82.70;;;;;;;-6.90;68.57;98905.04;108585;1271;22512;-75
2022/03/03 04:05:33;;;;;;;239.90;85.70;;;;;;;-6.92;68.28;98897.41;108599;1271;22688;-75
2022/03/03 04:08:00;;;;;;;244.00;86.40;;;;;;;-6.96;67.93;98892.44;108600;1271;22681;-74
2022/03/03 04:10:28;;;;;;;236.10;86.20;;;;;;;-7.00;67.75;98890.23;108597;1271;22620;-75
2022/03/03 04:12:56;;;;;;;271.50;91.60;;;;;;;-7.05;67.22;98888.13;108606;1271;22694;-75
2022/03/03 04:15:23;;;;;;;257.00;91.50;;;;;;;-7.10;67.22;98884.03;108618;1271;22543;-76
2022/03/03 04:17:50;;;;;;;273.00;96.90;;;;;;;-7.17;66.84;98886.17;108606;1271;22544;-75
2022/03/03 04:20:18;;;;;;;297.50;106.80;;;;;;;-7.23;67.06;98882.55;108602;1271;22553;-76
2022/03/03 04:22:45;;;;;;;376.60;135.00;;;;;;;-7.25;67.11;98883.38;108595;1271;22522;-75
2022/03/03 04:25:12;;;;;;;411.80;155.80;;;;;;;-7.27;67.53;98886.93;108655;1271;24271;-74
2022/03/03 04:27:40;;;;;;;402.40;159.20;;;;;;;-7.31;68.33;98895.50;108625;1271;22525;-74
2022/03/03 04:30:10;;;;;;;402.60;160.60;;;;;;;-7.34;68.84;98891.42;108625;1271;22600;-76
2022/03/03 04:32:38;;;;;;;398.50;142.20;;;;;;;-7.33;69.86;98895.32;108638;1271;22541;-74
2022/03/03 04:35:08;;;;;;;372.80;130.10;;;;;;;-7.32;70.03;98899.38;108624;1271;24085;-74
2022/03/03 04:37:36;;;;;;;339.10;123.90;;;;;;;-7.31;70.24;98894.99;108631;1271;24299;-74
2022/03/03 04:40:04;;;;;;;310.80;114.40;;;;;;;-7.29;70.76;98892.83;108608;1271;22707;-74
2022/03/03 04:42:32;;;;;;;310.80;107.10;;;;;;;-7.29;70.69;98892.33;108620;1271;24882;-76
2022/03/03 04:44:59;;;;;;;304.80;111.50;;;;;;;-7.29;70.70;98890.29;108596;1271;22531;-75
2022/03/03 04:47:26;;;;;;;313.60;109.60;;;;;;;-7.29;70.63;98889.61;108590;1271;24109;-75
2022/03/03 04:49:53;;;;;;;320.00;112.60;;;;;;;-7.30;69.95;98886.56;108573;1271;22527;-76
2022/03/03 04:52:20;;;;;;;311.90;112.90;;;;;;;-7.31;69.54;98879.77;108624;1270;22525;-76
2022/03/03 04:54:49;;;;;;;308.40;112.10;;;;;;;-7.32;69.33;98885.83;108634;1270;22532;-75
2022/03/03 04:57:17;;;;;;;307.40;110.90;;;;;;;-7.36;68.73;98883.80;108625;1270;22525;-75
2022/03/03 04:59:44;;;;;;;315.00;110.60;;;;;;;-7.41;68.45;98880.69;108622;1271;22684;-75
2022/03/03 05:02:11;;;;;;;307.00;110.40;;;;;;;-7.43;68.17;98880.84;108623;1270;22844;-75
2022/03/03 05:04:38;;;;;;;287.20;99.40;;;;;;;-7.45;68.12;98880.65;108600;1271;22522;-75
2022/03/03 05:07:05;;;;;;;241.70;85.50;;;;;;;-7.48;68.21;98879.42;108635;1271;25489;-75
2022/03/03 05:09:32;;;;;;;227.20;79.10;;;;;;;-7.50;68.40;98876.34;108583;1271;22558;-75
2022/03/03 05:11:59;;;;;;;245.50;90.90;;;;;;;-7.47;68.47;98877.23;108620;1271;22541;-75
2022/03/03 05:14:27;;;;;;;232.30;87.00;;;;;;;-7.45;68.31;98876.77;108625;1271;24385;-75
2022/03/03 05:16:54;;;;;;;234.60;85.30;;;;;;;-7.44;69.44;98876.95;108635;1271;22719;-76
2022/03/03 05:19:21;;;;;;;220.70;81.90;;;;;;;-7.46;69.87;98877.77;108551;1271;23929;-76
2022/03/03 05:21:48;;;;;;;212.70;80.40;;;;;;;-7.46;70.21;98878.95;108622;1271;22544;-75
2022/03/03 05:24:15;;;;;;;219.80;80.00;;;;;;;-7.45;70.33;98879.65;108562;1271;22547;-75
2022/03/03 05:26:42;;;;;;;214.80;79.90;;;;;;;-7.43;70.50;98877.46;108575;1271;24211;-74
2022/03/03 05:29:09;;;;;;;241.90;83.20;;;;;;;-7.41;70.81;98876.10;108635;1271;22522;-75
2022/03/03 05:31:36;;;;;;;238.70;83.40;;;;;;;-7.39;70.89;98874.44;108604;1271;22535;-75
2022/03/03 05:34:03;;;;;;;228.20;80.30;;;;;;;-7.41;70.73;98875.77;108544;1271;22536;-75
2022/03/03 05:36:31;;;;;;;251.00;85.60;;;;;;;-7.42;70.29;98869.66;108628;1271;22652;-74
2022/03/03 05:38:58;;;;;;;255.00;91.30;;;;;;;-7.43;69.74;98872.72;108579;1271;22547;-73
2022/03/03 05:41:25;;;;;;;269.20;90.80;;;;;;;-7.44;69.75;98871.89;108620;1268;22557;-76
2022/03/03 05:43:52;;;;;;;282.10;98.40;;;;;;;-7.45;69.08;98871.69;108564;1271;22534;-77
2022/03/03 05:46:21;;;;;;;323.80;111.80;;;;;;;-7.46;68.87;98871.67;108615;1271;22617;-77
2022/03/03 05:48:48;;;;;;;323.10;110.80;;;;;;;-7.50;68.70;98869.77;108619;1270;22525;-77
2022/03/03 05:51:16;;;;;;;282.90;99.00;;;;;;;-7.52;68.88;98872.80;108366;1271;22536;-77
2022/03/03 05:53:43;;;;;;;282.80;100.30;;;;;;;-7.54;68.80;98873.79;108407;1271;22525;-76
2022/03/03 05:56:14;;;;;;;272.30;96.90;;;;;;;-7.55;68.94;98875.98;108353;1271;22683;-76
2022/03/03 05:58:42;;;;;;;273.30;100.10;;;;;;;-7.55;68.90;98868.02;108449;1271;25123;-76
2022/03/03 06:01:11;;;;;;;288.90;111.70;;;;;;;-7.48;68.75;98870.46;108448;1271;22552;-76
2022/03/03 06:03:39;;;;;;;296.40;113.20;;;;;;;-7.41;69.18;98874.27;108404;1271;22554;-74
2022/03/03 06:06:16;;;;;;;285.00;108.80;;;;;;;-7.32;70.06;98869.11;108384;1271;22513;-74
2022/03/03 06:08:58;;;;;;;269.00;102.70;;;;;;;-7.21;70.23;98870.56;108464;1271;25331;-74
2022/03/03 06:11:27;;;;;;;280.60;101.10;;;;;;;-7.02;71.70;98870.21;108435;1269;22658;-74
2022/03/03 06:14:08;;;;;;;292.90;108.00;;;;;;;-6.80;72.55;98872.10;108351;1271;22544;-76
2022/03/03 06:16:39;;;;;;;317.00;111.60;;;;;;;-6.55;72.95;98870.91;108372;1271;22535;-74
2022/03/03 06:19:06;;;;;;;332.90;114.80;;;;;;;-6.33;72.94;98872.58;108426;1271;22521;-75
2022/03/03 06:21:33;;;;;;;317.40;110.40;;;;;;;-6.16;72.93;98876.06;108372;1268;22679;-75
2022/03/03 06:24:00;;;;;;;311.60;107.80;;;;;;;-6.03;72.63;98874.77;108437;1271;22561;-76
2022/03/03 06:26:27;;;;;;;329.20;115.00;;;;;;;-5.88;72.25;98868.73;108405;1271;22843;-76
2022/03/03 06:28:54;;;;;;;340.40;117.10;;;;;;;-5.72;71.77;98870.95;108426;1270;22525;-76
2022/03/03 06:31:22;;;;;;;348.30;120.40;;;;;;;-5.55;71.27;98873.73;108378;1271;25740;-77
2022/03/03 06:33:49;;;;;;;341.10;118.80;;;;;;;-5.41;70.86;98873.92;108410;1270;22605;-76
2022/03/03 06:36:16;;;;;;;322.30;120.00;;;;;;;-5.29;70.35;98870.39;108471;1271;22518;-76
2022/03/03 06:38:43;;;;;;;300.70;112.40;;;;;;;-5.22;69.88;98868.02;108413;1271;22664;-76
2022/03/03 06:41:10;;;;;;;244.40;93.70;;;;;;;-5.18;69.39;98868.02;108389;1271;22537;-77
2022/03/03 06:43:37;;;;;;;239.70;92.50;;;;;;;-5.18;69.29;98870.23;108413;1271;22700;-75
2022/03/03 06:46:05;;;;;;;224.30;86.90;;;;;;;-5.18;69.03;98871.75;108420;1271;22541;-80
2022/03/03 06:48:33;;;;;;;308.80;114.10;;;;;;;-5.18;68.98;98873.29;108501;1271;24552;-76
2022/03/03 06:51:04;;;;;;;326.60;119.30;;;;;;;-5.18;68.95;98870.40;108384;1271;22692;-77
2022/03/03 06:53:35;;;;;;;340.40;130.10;;;;;;;-5.16;68.82;98866.49;108544;1271;25304;-76
2022/03/03 06:56:10;;;;;;;349.40;127.10;;;;;;;-5.12;69.13;98861.59;108401;1271;22783;-77
2022/03/03 06:58:39;;;;;;;327.00;124.90;;;;;;;-5.06;69.05;98860.91;108387;1271;24312;-77
2022/03/03 07:01:09;;;;;;;352.50;129.90;;;;;;;-4.99;69.36;98860.23;108435;1270;22825;-77
2022/03/03 07:03:37;;;;;;;313.10;124.60;;;;;;;-4.91;68.84;98863.30;108610;1271;22531;-78
2022/03/03 07:06:04;;;;;;;352.50;137.90;;;;;;;-4.79;68.80;98861.25;108805;1270;22525;-79
2022/03/03 07:08:33;;;;;;;314.60;130.70;;;;;;;-4.67;69.88;98859.71;108421;1271;22689;-82
2022/03/03 07:11:00;;;;;;;307.70;121.00;;;;;;;-4.58;71.04;98858.35;108391;1271;22531;-76
2022/03/03 07:13:28;;;;;;;319.90;123.20;;;;;;;-4.50;71.07;98859.36;108399;1270;22610;-77
2022/03/03 07:16:00;;;;;;;320.50;121.70;;;;;;;-4.43;71.10;98859.34;108414;1271;22632;-76
2022/03/03 07:18:42;;;;;;;325.00;126.90;;;;;;;-4.36;70.65;98863.58;108434;1271;22639;-76
2022/03/03 07:21:23;;;;;;;337.40;128.30;;;;;;;-4.28;70.76;98860.16;108384;1271;23331;-76
2022/03/03 07:24:03;;;;;;;326.20;123.20;;;;;;;-4.18;70.53;98858.27;108410;1271;22655;-76
2022/03/03 07:26:32;;;;;;;285.30;115.00;;;;;;;-4.08;70.75;98861.81;108430;1271;25311;-79
2022/03/03 07:29:04;;;;;;;256.50;105.30;;;;;;;-3.98;70.47;98859.05;108775;1269;22524;-75
2022/03/03 07:31:47;;;;;;;240.90;102.80;;;;;;;-3.80;70.85;98856.10;108390;1271;22648;-76
2022/03/03 07:34:17;;;;;;;197.30;84.90;;;;;;;-3.63;71.47;98852.95;108410;1270;22539;-73
2022/03/03 07:36:46;;;;;;;169.10;71.60;;;;;;;-3.50;72.26;98849.81;108432;1271;22709;-76
2022/03/03 07:39:16;;;;;;;179.30;73.80;;;;;;;-3.40;72.00;98848.05;108426;1271;22532;-74
2022/03/03 07:41:44;;;;;;;181.70;73.90;;;;;;;-3.29;71.70;98850.36;108426;1271;24253;-75
2022/03/03 07:44:12;;;;;;;160.80;63.90;;;;;;;-3.17;71.32;98845.69;108352;1271;23175;-75
2022/03/03 07:46:39;;;;;;;181.30;77.60;;;;;;;-3.06;70.71;98837.77;108420;1271;23231;-75
2022/03/03 07:49:09;;;;;;;180.70;77.50;;;;;;;-2.95;70.40;98842.29;108371;1271;22535;-75
2022/03/03 07:51:36;;;;;;;193.90;80.60;;;;;;;-2.85;70.27;98841.70;108435;1271;22677;-74
2022/03/03 07:54:03;;;;;;;192.00;77.90;;;;;;;-2.75;70.01;98834.96;108454;1271;22616;-77
2022/03/03 07:56:38;;;;;;;182.40;77.80;;;;;;;-2.65;69.80;98830.09;108385;1271;22654;-75
2022/03/03 07:59:11;;;;;;;187.20;76.20;;;;;;;-2.52;69.85;98824.52;108371;1271;22554;-74
2022/03/03 08:01:39;;;;;;;173.80;69.20;;;;;;;-2.42;69.62;98823.05;108383;1271;22620;-75
2022/03/03 08:04:08;;;;;;;188.60;77.00;;;;;;;-2.31;69.58;98827.88;108467;1271;22531;-73
2022/03/03 08:06:35;;;;;;;163.50;66.70;;;;;;;-2.18;69.46;98828.27;108402;1271;24255;-75
2022/03/03 08:09:02;;;;;;;146.60;62.00;;;;;;;-2.07;69.25;98823.52;108380;1271;22671;-76
2022/03/03 08:11:30;;;;;;;171.20;70.70;;;;;;;-1.94;69.11;98827.98;108431;1271;24325;-78
2022/03/03 08:13:57;;;;;;;170.30;69.90;;;;;;;-1.81;69.06;98828.85;108390;1271;23812;-75
2022/03/03 08:16:24;;;;;;;165.90;72.90;;;;;;;-1.69;68.83;98827.16;108431;1271;22544;-77
2022/03/03 08:18:55;;;;;;;179.50;76.00;;;;;;;-1.55;68.73;98829.87;108336;1271;22553;-76
2022/03/03 08:21:23;;;;;;;170.50;74.90;;;;;;;-1.38;68.69;98828.61;108867;1271;25477;-81
2022/03/03 08:23:51;;;;;;;162.80;69.60;;;;;;;-1.16;68.94;98832.55;108409;1271;22617;-81
2022/03/03 08:26:18;;;;;;;157.00;69.20;;;;;;;-0.99;69.25;98831.10;108397;1271;22522;-75
2022/03/03 08:28:45;;;;;;;162.80;68.50;;;;;;;-0.87;69.33;98830.55;108396;1271;22714;-78
2022/03/03 08:31:19;;;;;;;156.10;70.30;;;;;;;-0.78;69.16;98828.70;108398;1271;22625;-79
2022/03/03 08:33:54;;;;;;;141.80;60.70;;;;;;;-0.67;68.74;98825.60;108342;1271;24521;-75
2022/03/03 08:36:29;;;;;;;119.50;54.40;;;;;;;-0.56;68.40;98827.30;108373;1271;22543;-79
2022/03/03 08:39:03;;;;;;;119.10;54.70;;;;;;;-0.47;67.91;98818.93;108542;1271;22529;-75
2022/03/03 08:41:36;;;;;;;120.50;51.10;;;;;;;-0.39;67.49;98822.89;108500;1271;22560;-79
2022/03/03 08:44:05;;;;;;;104.50;50.00;;;;;;;-0.32;67.21;98820.71;108591;1270;25438;-77
2022/03/03 08:46:38;;;;;;;98.60;43.60;;;;;;;-0.24;66.92;98816.62;108572;1271;22527;-80
2022/03/03 08:49:08;;;;;;;106.00;46.50;;;;;;;-0.17;66.36;98818.70;108597;1271;22528;-77
2022/03/03 08:51:37;;;;;;;97.40;45.80;;;;;;;-0.12;66.02;98822.21;108583;1271;22566;-77
2022/03/03 08:54:05;;;;;;;97.70;46.20;;;;;;;-0.08;66.01;98824.17;108607;1270;22625;-77
2022/03/03 08:56:32;;;;;;;73.90;34.10;;;;;;;-0.01;65.50;98827.14;108567;1271;22704;-77
2022/03/03 08:59:00;;;;;;;98.70;43.70;;;;;;;0.04;65.39;98826.69;108569;1271;22495;-76
2022/03/03 09:01:29;;;;;;;79.80;38.50;;;;;;;0.10;65.25;98820.23;108610;1271;22568;-76
2022/03/03 09:03:58;;;;;;;81.10;37.80;;;;;;;0.17;64.67;98815.80;108603;1271;22517;-74
2022/03/03 09:06:26;;;;;;;74.60;35.50;;;;;;;0.24;64.56;98817.55;108632;1271;24239;-75
2022/03/03 09:08:53;;;;;;;67.80;31.20;;;;;;;0.29;64.34;98817.27;108659;1271;22544;-78
2022/03/03 09:11:20;;;;;;;57.30;27.10;;;;;;;0.33;64.18;98816.86;108606;1271;22524;-78
2022/03/03 09:13:48;;;;;;;61.60;29.90;;;;;;;0.36;63.86;98815.73;108548;1271;22562;-74
2022/03/03 09:16:17;;;;;;;63.90;31.10;;;;;;;0.43;63.91;98812.00;108629;1271;22535;-78
2022/03/03 09:18:45;;;;;;;76.50;34.10;;;;;;;0.51;63.78;98814.73;108630;1271;22539;-79
2022/03/03 09:21:12;;;;;;;56.00;28.90;;;;;;;0.59;63.36;98816.96;108632;1269;22526;-75
2022/03/03 09:23:39;;;;;;;47.60;24.10;;;;;;;0.67;63.28;98813.70;108629;1271;22543;-79
2022/03/03 09:26:06;;;;;;;45.20;23.10;;;;;;;0.78;62.96;98811.73;108567;1271;22604;-74
2022/03/03 09:28:34;;;;;;;44.10;22.90;;;;;;;0.88;62.65;98813.40;108546;1271;22690;-75
2022/03/03 09:31:01;;;;;;;43.80;22.20;;;;;;;0.97;62.38;98811.29;108587;1271;22630;-80
2022/03/03 09:33:28;;;;;;;44.70;22.50;;;;;;;1.08;61.51;98812.73;108544;1271;22538;-75
2022/03/03 09:35:55;;;;;;;57.10;27.30;;;;;;;1.18;61.30;98810.11;108597;1271;22534;-75
2022/03/03 09:38:22;;;;;;;53.70;26.60;;;;;;;1.25;60.49;98809.06;108641;1268;22522;-78
2022/03/03 09:40:50;;;;;;;46.30;25.90;;;;;;;1.34;60.68;98805.56;108594;1271;22541;-74
2022/03/03 09:43:17;;;;;;;47.40;24.90;;;;;;;1.41;60.48;98801.63;108624;1271;22594;-73
2022/03/03 09:45:44;;;;;;;51.70;26.60;;;;;;;1.45;60.20;98806.14;108547;1271;22688;-73
2022/03/03 09:48:11;;;;;;;57.50;27.60;;;;;;;1.49;59.90;98807.09;108605;1271;25339;-73
2022/03/03 09:50:41;;;;;;;41.30;23.00;;;;;;;1.55;59.86;98808.13;108560;1271;22536;-77
2022/03/03 09:53:11;;;;;;;37.40;20.00;;;;;;;1.61;59.38;98806.41;108662;1271;22543;-75
2022/03/03 09:55:39;;;;;;;42.20;21.30;;;;;;;1.68;59.27;98800.05;108562;1271;22548;-78
2022/03/03 09:58:06;;;;;;;42.10;22.20;;;;;;;1.75;59.12;98802.26;108559;1271;22522;-75
2022/03/03 10:00:40;;;;;;;46.60;24.10;;;;;;;1.86;58.43;98801.45;108612;1271;22575;-74
2022/03/03 10:03:14;;;;;;;41.60;23.00;;;;;;;1.93;58.23;98800.22;108656;1271;22545;-78
2022/03/03 10:05:51;;;;;;;40.40;22.50;;;;;;;2.03;57.51;98796.70;108662;1271;22543;-79
2022/03/03 10:08:21;;;;;;;43.50;23.40;;;;;;;2.12;57.81;98800.23;108623;1271;22562;-76
2022/03/03 10:11:00;;;;;;;44.30;24.00;;;;;;;2.18;57.63;98795.89;108617;1271;22525;-79
2022/03/03 10:13:48;;;;;;;41.30;24.30;;;;;;;2.23;57.31;98792.50;108631;1271;24382;-77
2022/03/03 10:16:26;;;;;;;48.30;25.40;;;;;;;2.31;57.11;98793.98;108648;1271;22553;-78
2022/03/03 10:19:03;;;;;;;53.30;27.10;;;;;;;2.38;57.06;98788.63;108624;1271;24221;-76
2022/03/03 10:21:33;;;;;;;54.10;28.00;;;;;;;2.45;57.06;98791.84;108584;1271;22534;-75
2022/03/03 10:24:14;;;;;;;50.70;28.50;;;;;;;2.50;56.38;98788.93;108595;1271;22525;-75
2022/03/03 10:26:41;;;;;;;53.60;29.60;;;;;;;2.56;57.01;98786.19;108565;1271;23286;-80
2022/03/03 10:29:17;;;;;;;50.20;26.40;;;;;;;2.58;56.64;98782.52;108602;1271;22696;-76
2022/03/03 10:31:51;;;;;;;47.40;24.90;;;;;;;2.62;56.91;98788.91;108611;1271;22553;-76
2022/03/03 10:34:20;;;;;;;48.20;25.80;;;;;;;2.69;56.61;98790.95;108613;1270;22560;-79
2022/03/03 10:36:59;;;;;;;43.90;25.20;;;;;;;2.75;56.08;98787.15;108532;1271;22614;-80
2022/03/03 10:39:42;;;;;;;48.70;27.20;;;;;;;2.80;54.94;98784.57;108587;1270;22613;-79
2022/03/03 10:42:17;;;;;;;43.60;23.90;;;;;;;2.79;55.43;98779.96;108551;1271;22534;-78
2022/03/03 10:44:49;;;;;;;40.30;21.00;;;;;;;2.77;55.23;98779.16;108551;1271;22565;-79
2022/03/03 10:47:18;;;;;;;49.60;27.60;;;;;;;2.77;55.60;98782.77;108555;1271;22604;-80
2022/03/03 10:49:47;;;;;;;50.30;27.30;;;;;;;2.76;55.55;98779.23;108550;1271;22554;-80
2022/03/03 10:52:18;;;;;;;49.00;26.60;;;;;;;2.76;55.22;98772.14;108559;1271;22540;-75
2022/03/03 10:55:03;;;;;;;42.40;23.90;;;;;;;2.80;54.83;98772.01;108578;1271;22638;-76
2022/03/03 10:57:54;;;;;;;52.00;28.50;;;;;;;2.87;54.81;98766.27;108601;1271;25245;-80
2022/03/03 11:00:25;;;;;;;43.90;24.60;;;;;;;3.00;54.30;98766.91;108586;1271;22527;-78
2022/03/03 11:02:56;;;;;;;42.20;23.30;;;;;;;3.08;53.61;98765.96;108565;1271;22722;-80
2022/03/03 11:05:26;;;;;;;45.20;24.10;;;;;;;3.11;53.20;98765.88;108558;1271;22700;-77
2022/03/03 11:07:54;;;;;;;38.50;22.50;;;;;;;3.15;53.30;98766.41;108606;1271;25235;-79
2022/03/03 11:10:25;;;;;;;41.70;22.90;;;;;;;3.15;52.70;98761.41;108610;1271;22542;-76